sensor_id;sensor_type;location;lat;lon;timestamp;temperature;humidity
51007;DHT22;37034;47.886;-3.904;2023-05-07T00:01:57;18.20;99.20
51007;DHT22;37034;47.886;-3.904;2023-05-07T00:04:22;18.20;99.20
51007;DHT22;37034;47.886;-3.904;2023-05-07T00:06:48;18.20;99.10
51007;DHT22;37034;47.886;-3.904;2023-05-07T00:09:14;18.20;99.10
51007;DHT22;37034;47.886;-3.904;2023-05-07T00:11:39;18.20;99.10
51007;DHT22;37034;47.886;-3.904;2023-05-07T00:14:06;18.20;99.20
51007;DHT22;37034;47.886;-3.904;2023-05-07T00:16:31;18.20;99.30
51007;DHT22;37034;47.886;-3.904;2023-05-07T00:18:57;18.20;99.30
51007;DHT22;37034;47.886;-3.904;2023-05-07T00:21:23;18.20;99.20
51007;DHT22;37034;47.886;-3.904;2023-05-07T00:23:52;18.20;99.30
51007;DHT22;37034;47.886;-3.904;2023-05-07T00:26:18;18.20;99.30
51007;DHT22;37034;47.886;-3.904;2023-05-07T00:28:43;18.20;99.30
51007;DHT22;37034;47.886;-3.904;2023-05-07T00:31:09;18.30;99.30
51007;DHT22;37034;47.886;-3.904;2023-05-07T00:33:35;18.30;99.20
51007;DHT22;37034;47.886;-3.904;2023-05-07T00:36:01;18.30;99.30
51007;DHT22;37034;47.886;-3.904;2023-05-07T00:38:27;18.30;99.30
51007;DHT22;37034;47.886;-3.904;2023-05-07T00:40:52;18.30;99.30
51007;DHT22;37034;47.886;-3.904;2023-05-07T00:43:18;18.30;99.30
51007;DHT22;37034;47.886;-3.904;2023-05-07T00:45:44;18.30;99.30
51007;DHT22;37034;47.886;-3.904;2023-05-07T00:48:10;18.30;99.30
51007;DHT22;37034;47.886;-3.904;2023-05-07T00:50:35;18.30;99.30
51007;DHT22;37034;47.886;-3.904;2023-05-07T00:53:01;18.30;99.30
51007;DHT22;37034;47.886;-3.904;2023-05-07T00:55:27;18.30;99.30
51007;DHT22;37034;47.886;-3.904;2023-05-07T00:57:54;18.30;99.30
51007;DHT22;37034;47.886;-3.904;2023-05-07T01:00:19;18.30;99.30
51007;DHT22;37034;47.886;-3.904;2023-05-07T01:02:45;18.30;99.30
51007;DHT22;37034;47.886;-3.904;2023-05-07T01:05:15;18.30;99.30
51007;DHT22;37034;47.886;-3.904;2023-05-07T01:07:42;18.20;99.40
51007;DHT22;37034;47.886;-3.904;2023-05-07T01:10:09;18.20;99.40
51007;DHT22;37034;47.886;-3.904;2023-05-07T01:12:37;18.20;99.60
51007;DHT22;37034;47.886;-3.904;2023-05-07T01:15:06;18.20;99.40
51007;DHT22;37034;47.886;-3.904;2023-05-07T01:17:36;18.20;99.40
51007;DHT22;37034;47.886;-3.904;2023-05-07T01:20:05;18.20;99.40
51007;DHT22;37034;47.886;-3.904;2023-05-07T01:22:40;18.20;99.50
51007;DHT22;37034;47.886;-3.904;2023-05-07T01:25:07;18.20;99.50
51007;DHT22;37034;47.886;-3.904;2023-05-07T01:27:33;18.20;99.50
51007;DHT22;37034;47.886;-3.904;2023-05-07T01:30:01;18.20;99.40
51007;DHT22;37034;47.886;-3.904;2023-05-07T01:32:33;18.20;99.70
51007;DHT22;37034;47.886;-3.904;2023-05-07T01:35:01;18.20;99.50
51007;DHT22;37034;47.886;-3.904;2023-05-07T01:37:29;18.20;99.50
51007;DHT22;37034;47.886;-3.904;2023-05-07T01:39:55;18.20;99.50
51007;DHT22;37034;47.886;-3.904;2023-05-07T01:42:21;18.20;99.50
51007;DHT22;37034;47.886;-3.904;2023-05-07T01:44:47;18.20;99.50
51007;DHT22;37034;47.886;-3.904;2023-05-07T01:47:13;18.20;99.40
51007;DHT22;37034;47.886;-3.904;2023-05-07T01:49:40;18.10;99.40
51007;DHT22;37034;47.886;-3.904;2023-05-07T01:52:07;18.10;99.50
51007;DHT22;37034;47.886;-3.904;2023-05-07T01:54:33;18.10;99.50
51007;DHT22;37034;47.886;-3.904;2023-05-07T01:56:59;18.10;99.60
51007;DHT22;37034;47.886;-3.904;2023-05-07T01:59:25;18.10;99.50
51007;DHT22;37034;47.886;-3.904;2023-05-07T02:01:51;18.10;99.50
51007;DHT22;37034;47.886;-3.904;2023-05-07T02:04:17;18.10;99.60
51007;DHT22;37034;47.886;-3.904;2023-05-07T02:06:43;18.20;99.70
51007;DHT22;37034;47.886;-3.904;2023-05-07T02:09:08;18.20;99.80
51007;DHT22;37034;47.886;-3.904;2023-05-07T02:11:34;18.20;99.80
51007;DHT22;37034;47.886;-3.904;2023-05-07T02:14:00;18.20;99.70
51007;DHT22;37034;47.886;-3.904;2023-05-07T02:16:26;18.20;99.70
51007;DHT22;37034;47.886;-3.904;2023-05-07T02:18:51;18.10;99.60
51007;DHT22;37034;47.886;-3.904;2023-05-07T02:21:17;18.10;99.70
51007;DHT22;37034;47.886;-3.904;2023-05-07T02:23:43;18.10;99.70
51007;DHT22;37034;47.886;-3.904;2023-05-07T02:26:09;18.10;99.70
51007;DHT22;37034;47.886;-3.904;2023-05-07T02:28:34;18.10;99.60
51007;DHT22;37034;47.886;-3.904;2023-05-07T02:31:03;18.10;99.60
51007;DHT22;37034;47.886;-3.904;2023-05-07T02:33:29;18.10;99.60
51007;DHT22;37034;47.886;-3.904;2023-05-07T02:35:56;18.10;99.50
51007;DHT22;37034;47.886;-3.904;2023-05-07T02:38:22;18.10;99.60
51007;DHT22;37034;47.886;-3.904;2023-05-07T02:40:48;18.10;99.50
51007;DHT22;37034;47.886;-3.904;2023-05-07T02:43:13;18.00;99.40
51007;DHT22;37034;47.886;-3.904;2023-05-07T02:45:39;18.00;99.50
51007;DHT22;37034;47.886;-3.904;2023-05-07T02:48:05;18.00;99.60
51007;DHT22;37034;47.886;-3.904;2023-05-07T02:50:31;18.00;99.70
51007;DHT22;37034;47.886;-3.904;2023-05-07T02:52:58;18.10;99.70
51007;DHT22;37034;47.886;-3.904;2023-05-07T02:55:23;18.10;99.50
51007;DHT22;37034;47.886;-3.904;2023-05-07T02:57:49;18.10;99.40
51007;DHT22;37034;47.886;-3.904;2023-05-07T03:00:17;18.00;99.40
51007;DHT22;37034;47.886;-3.904;2023-05-07T03:02:44;18.00;99.40
51007;DHT22;37034;47.886;-3.904;2023-05-07T03:05:10;18.00;99.50
51007;DHT22;37034;47.886;-3.904;2023-05-07T03:07:36;18.00;99.50
51007;DHT22;37034;47.886;-3.904;2023-05-07T03:10:03;17.90;99.60
51007;DHT22;37034;47.886;-3.904;2023-05-07T03:12:29;17.90;99.50
51007;DHT22;37034;47.886;-3.904;2023-05-07T03:14:55;17.90;99.60
51007;DHT22;37034;47.886;-3.904;2023-05-07T03:17:21;17.90;99.60
51007;DHT22;37034;47.886;-3.904;2023-05-07T03:19:46;18.00;99.60
51007;DHT22;37034;47.886;-3.904;2023-05-07T03:22:12;18.00;99.60
51007;DHT22;37034;47.886;-3.904;2023-05-07T03:24:38;18.00;99.50
51007;DHT22;37034;47.886;-3.904;2023-05-07T03:27:03;17.90;99.50
51007;DHT22;37034;47.886;-3.904;2023-05-07T03:29:29;17.90;99.60
51007;DHT22;37034;47.886;-3.904;2023-05-07T03:31:55;18.00;99.60
51007;DHT22;37034;47.886;-3.904;2023-05-07T03:34:20;17.90;99.60
51007;DHT22;37034;47.886;-3.904;2023-05-07T03:36:50;17.90;99.60
51007;DHT22;37034;47.886;-3.904;2023-05-07T03:39:16;17.90;99.60
51007;DHT22;37034;47.886;-3.904;2023-05-07T03:41:42;17.90;99.60
51007;DHT22;37034;47.886;-3.904;2023-05-07T03:44:07;17.90;99.60
51007;DHT22;37034;47.886;-3.904;2023-05-07T03:46:33;17.80;99.60
51007;DHT22;37034;47.886;-3.904;2023-05-07T03:48:59;17.80;99.60
51007;DHT22;37034;47.886;-3.904;2023-05-07T03:51:25;17.80;99.60
51007;DHT22;37034;47.886;-3.904;2023-05-07T03:53:51;17.80;99.60
51007;DHT22;37034;47.886;-3.904;2023-05-07T03:56:23;17.80;99.60
51007;DHT22;37034;47.886;-3.904;2023-05-07T03:58:52;17.80;99.60
51007;DHT22;37034;47.886;-3.904;2023-05-07T04:01:17;17.80;99.60
51007;DHT22;37034;47.886;-3.904;2023-05-07T04:03:43;17.80;99.60
51007;DHT22;37034;47.886;-3.904;2023-05-07T04:06:09;17.80;99.60
51007;DHT22;37034;47.886;-3.904;2023-05-07T04:08:34;17.80;99.50
51007;DHT22;37034;47.886;-3.904;2023-05-07T04:11:00;17.80;99.40
51007;DHT22;37034;47.886;-3.904;2023-05-07T04:13:26;17.80;99.30
51007;DHT22;37034;47.886;-3.904;2023-05-07T04:15:53;17.70;99.20
51007;DHT22;37034;47.886;-3.904;2023-05-07T04:18:19;17.70;99.30
51007;DHT22;37034;47.886;-3.904;2023-05-07T04:20:45;17.60;99.20
51007;DHT22;37034;47.886;-3.904;2023-05-07T04:23:11;17.60;99.30
51007;DHT22;37034;47.886;-3.904;2023-05-07T04:25:36;17.60;99.30
51007;DHT22;37034;47.886;-3.904;2023-05-07T04:28:02;17.60;99.20
51007;DHT22;37034;47.886;-3.904;2023-05-07T04:30:28;17.50;99.20
51007;DHT22;37034;47.886;-3.904;2023-05-07T04:32:53;17.50;99.20
51007;DHT22;37034;47.886;-3.904;2023-05-07T04:35:19;17.50;99.10
51007;DHT22;37034;47.886;-3.904;2023-05-07T04:37:45;17.40;99.10
51007;DHT22;37034;47.886;-3.904;2023-05-07T04:40:10;17.40;99.10
51007;DHT22;37034;47.886;-3.904;2023-05-07T04:42:36;17.40;99.30
51007;DHT22;37034;47.886;-3.904;2023-05-07T04:45:02;17.40;99.50
51007;DHT22;37034;47.886;-3.904;2023-05-07T04:47:28;17.40;99.50
51007;DHT22;37034;47.886;-3.904;2023-05-07T04:49:54;17.40;99.50
51007;DHT22;37034;47.886;-3.904;2023-05-07T04:52:19;17.50;99.50
51007;DHT22;37034;47.886;-3.904;2023-05-07T04:54:45;17.50;99.50
51007;DHT22;37034;47.886;-3.904;2023-05-07T04:57:11;17.50;99.70
51007;DHT22;37034;47.886;-3.904;2023-05-07T04:59:37;17.60;99.40
51007;DHT22;37034;47.886;-3.904;2023-05-07T05:02:02;17.50;99.40
51007;DHT22;37034;47.886;-3.904;2023-05-07T05:04:29;17.50;99.40
51007;DHT22;37034;47.886;-3.904;2023-05-07T05:06:55;17.50;99.40
51007;DHT22;37034;47.886;-3.904;2023-05-07T05:09:21;17.60;99.50
51007;DHT22;37034;47.886;-3.904;2023-05-07T05:11:47;17.60;99.50
51007;DHT22;37034;47.886;-3.904;2023-05-07T05:14:13;17.60;99.50
51007;DHT22;37034;47.886;-3.904;2023-05-07T05:16:39;17.60;99.40
51007;DHT22;37034;47.886;-3.904;2023-05-07T05:19:05;17.60;99.30
51007;DHT22;37034;47.886;-3.904;2023-05-07T05:21:31;17.60;99.30
51007;DHT22;37034;47.886;-3.904;2023-05-07T05:23:57;17.60;99.20
51007;DHT22;37034;47.886;-3.904;2023-05-07T05:26:23;17.50;99.10
51007;DHT22;37034;47.886;-3.904;2023-05-07T05:28:49;17.40;98.80
51007;DHT22;37034;47.886;-3.904;2023-05-07T05:31:16;17.40;99.00
51007;DHT22;37034;47.886;-3.904;2023-05-07T05:33:41;17.30;98.80
51007;DHT22;37034;47.886;-3.904;2023-05-07T05:36:09;17.30;99.10
51007;DHT22;37034;47.886;-3.904;2023-05-07T05:38:35;17.30;99.20
51007;DHT22;37034;47.886;-3.904;2023-05-07T05:41:01;17.30;99.00
51007;DHT22;37034;47.886;-3.904;2023-05-07T05:43:27;17.20;98.90
51007;DHT22;37034;47.886;-3.904;2023-05-07T05:45:52;17.20;98.90
51007;DHT22;37034;47.886;-3.904;2023-05-07T05:48:18;17.20;99.10
51007;DHT22;37034;47.886;-3.904;2023-05-07T05:50:44;17.20;99.10
51007;DHT22;37034;47.886;-3.904;2023-05-07T05:53:09;17.20;99.00
51007;DHT22;37034;47.886;-3.904;2023-05-07T05:55:35;17.20;99.00
51007;DHT22;37034;47.886;-3.904;2023-05-07T05:58:01;17.20;99.00
51007;DHT22;37034;47.886;-3.904;2023-05-07T06:00:27;17.20;99.20
51007;DHT22;37034;47.886;-3.904;2023-05-07T06:02:53;17.30;99.10
51007;DHT22;37034;47.886;-3.904;2023-05-07T06:05:18;17.20;98.80
51007;DHT22;37034;47.886;-3.904;2023-05-07T06:07:44;17.20;98.90
51007;DHT22;37034;47.886;-3.904;2023-05-07T06:10:10;17.20;99.10
51007;DHT22;37034;47.886;-3.904;2023-05-07T06:12:35;17.30;99.10
51007;DHT22;37034;47.886;-3.904;2023-05-07T06:15:01;17.30;98.90
51007;DHT22;37034;47.886;-3.904;2023-05-07T06:17:27;17.40;99.10
51007;DHT22;37034;47.886;-3.904;2023-05-07T06:19:53;17.50;99.10
51007;DHT22;37034;47.886;-3.904;2023-05-07T06:22:19;17.50;99.20
51007;DHT22;37034;47.886;-3.904;2023-05-07T06:24:44;17.60;99.10
51007;DHT22;37034;47.886;-3.904;2023-05-07T06:27:10;17.70;99.00
51007;DHT22;37034;47.886;-3.904;2023-05-07T06:29:36;17.70;98.90
51007;DHT22;37034;47.886;-3.904;2023-05-07T06:32:12;17.70;98.60
51007;DHT22;37034;47.886;-3.904;2023-05-07T06:34:39;17.70;98.80
51007;DHT22;37034;47.886;-3.904;2023-05-07T06:37:05;17.70;98.80
51007;DHT22;37034;47.886;-3.904;2023-05-07T06:39:31;17.80;98.70
51007;DHT22;37034;47.886;-3.904;2023-05-07T06:41:57;17.80;98.70
51007;DHT22;37034;47.886;-3.904;2023-05-07T06:44:23;17.70;98.70
51007;DHT22;37034;47.886;-3.904;2023-05-07T06:46:48;17.80;98.80
51007;DHT22;37034;47.886;-3.904;2023-05-07T06:49:14;17.90;98.80
51007;DHT22;37034;47.886;-3.904;2023-05-07T06:51:40;17.90;98.70
51007;DHT22;37034;47.886;-3.904;2023-05-07T06:54:05;17.90;98.70
51007;DHT22;37034;47.886;-3.904;2023-05-07T06:56:32;17.90;98.60
51007;DHT22;37034;47.886;-3.904;2023-05-07T06:58:59;18.00;98.80
51007;DHT22;37034;47.886;-3.904;2023-05-07T07:01:24;17.90;98.00
51007;DHT22;37034;47.886;-3.904;2023-05-07T07:03:50;17.80;98.30
51007;DHT22;37034;47.886;-3.904;2023-05-07T07:06:16;17.90;98.60
51007;DHT22;37034;47.886;-3.904;2023-05-07T07:08:42;17.90;98.70
51007;DHT22;37034;47.886;-3.904;2023-05-07T07:11:09;18.10;98.60
51007;DHT22;37034;47.886;-3.904;2023-05-07T07:13:35;18.10;98.50
51007;DHT22;37034;47.886;-3.904;2023-05-07T07:16:01;18.20;98.60
51007;DHT22;37034;47.886;-3.904;2023-05-07T07:18:27;18.40;98.50
51007;DHT22;37034;47.886;-3.904;2023-05-07T07:20:52;18.30;98.20
51007;DHT22;37034;47.886;-3.904;2023-05-07T07:23:18;18.30;98.00
51007;DHT22;37034;47.886;-3.904;2023-05-07T07:25:44;18.30;98.30
51007;DHT22;37034;47.886;-3.904;2023-05-07T07:28:10;18.50;98.10
51007;DHT22;37034;47.886;-3.904;2023-05-07T07:30:36;18.40;98.00
51007;DHT22;37034;47.886;-3.904;2023-05-07T07:33:02;18.40;97.80
51007;DHT22;37034;47.886;-3.904;2023-05-07T07:35:34;18.30;97.80
51007;DHT22;37034;47.886;-3.904;2023-05-07T07:38:00;18.30;98.00
51007;DHT22;37034;47.886;-3.904;2023-05-07T07:40:26;18.40;98.10
51007;DHT22;37034;47.886;-3.904;2023-05-07T07:42:53;18.60;98.20
51007;DHT22;37034;47.886;-3.904;2023-05-07T07:45:20;18.70;98.00
51007;DHT22;37034;47.886;-3.904;2023-05-07T07:47:45;18.80;98.20
51007;DHT22;37034;47.886;-3.904;2023-05-07T07:50:11;18.80;97.70
51007;DHT22;37034;47.886;-3.904;2023-05-07T07:52:37;19.00;98.00
51007;DHT22;37034;47.886;-3.904;2023-05-07T07:55:03;19.10;98.10
51007;DHT22;37034;47.886;-3.904;2023-05-07T07:57:30;19.30;98.10
51007;DHT22;37034;47.886;-3.904;2023-05-07T07:59:55;19.40;97.40
51007;DHT22;37034;47.886;-3.904;2023-05-07T08:02:21;19.50;97.20
51007;DHT22;37034;47.886;-3.904;2023-05-07T08:04:47;19.50;97.10
51007;DHT22;37034;47.886;-3.904;2023-05-07T08:07:12;19.60;97.30
51007;DHT22;37034;47.886;-3.904;2023-05-07T08:09:39;19.60;97.20
51007;DHT22;37034;47.886;-3.904;2023-05-07T08:12:06;19.60;96.10
51007;DHT22;37034;47.886;-3.904;2023-05-07T08:14:31;19.60;96.80
51007;DHT22;37034;47.886;-3.904;2023-05-07T08:16:57;19.40;96.20
51007;DHT22;37034;47.886;-3.904;2023-05-07T08:19:23;19.30;96.60
51007;DHT22;37034;47.886;-3.904;2023-05-07T08:21:49;19.40;96.90
51007;DHT22;37034;47.886;-3.904;2023-05-07T08:24:15;19.20;96.40
51007;DHT22;37034;47.886;-3.904;2023-05-07T08:26:41;19.20;96.50
51007;DHT22;37034;47.886;-3.904;2023-05-07T08:29:07;19.20;96.60
51007;DHT22;37034;47.886;-3.904;2023-05-07T08:31:33;19.10;96.50
51007;DHT22;37034;47.886;-3.904;2023-05-07T08:33:59;19.20;96.60
51007;DHT22;37034;47.886;-3.904;2023-05-07T08:36:25;19.20;96.70
51007;DHT22;37034;47.886;-3.904;2023-05-07T08:38:51;19.30;96.40
51007;DHT22;37034;47.886;-3.904;2023-05-07T08:41:17;19.30;96.40
51007;DHT22;37034;47.886;-3.904;2023-05-07T08:43:48;19.30;95.70
51007;DHT22;37034;47.886;-3.904;2023-05-07T08:46:20;19.20;96.00
51007;DHT22;37034;47.886;-3.904;2023-05-07T08:48:49;19.30;96.40
51007;DHT22;37034;47.886;-3.904;2023-05-07T08:51:17;19.50;96.80
51007;DHT22;37034;47.886;-3.904;2023-05-07T08:53:44;19.70;96.30
51007;DHT22;37034;47.886;-3.904;2023-05-07T08:56:09;19.80;96.20
51007;DHT22;37034;47.886;-3.904;2023-05-07T08:58:36;19.70;95.60
51007;DHT22;37034;47.886;-3.904;2023-05-07T09:01:07;19.60;95.60
51007;DHT22;37034;47.886;-3.904;2023-05-07T09:03:33;19.60;95.50
51007;DHT22;37034;47.886;-3.904;2023-05-07T09:05:59;19.60;95.40
51007;DHT22;37034;47.886;-3.904;2023-05-07T09:08:26;19.60;95.30
51007;DHT22;37034;47.886;-3.904;2023-05-07T09:10:52;19.40;94.30
51007;DHT22;37034;47.886;-3.904;2023-05-07T09:13:19;19.20;95.60
51007;DHT22;37034;47.886;-3.904;2023-05-07T09:15:44;19.30;95.80
51007;DHT22;37034;47.886;-3.904;2023-05-07T09:18:10;19.50;96.30
51007;DHT22;37034;47.886;-3.904;2023-05-07T09:20:37;19.90;95.70
51007;DHT22;37034;47.886;-3.904;2023-05-07T09:23:03;19.70;95.70
51007;DHT22;37034;47.886;-3.904;2023-05-07T09:25:30;19.70;95.30
51007;DHT22;37034;47.886;-3.904;2023-05-07T09:27:56;19.90;95.30
51007;DHT22;37034;47.886;-3.904;2023-05-07T09:30:22;20.00;95.10
51007;DHT22;37034;47.886;-3.904;2023-05-07T09:32:47;20.10;95.00
51007;DHT22;37034;47.886;-3.904;2023-05-07T09:35:17;20.20;94.90
51007;DHT22;37034;47.886;-3.904;2023-05-07T09:37:43;20.30;95.00
51007;DHT22;37034;47.886;-3.904;2023-05-07T09:40:23;20.40;94.90
51007;DHT22;37034;47.886;-3.904;2023-05-07T09:42:49;20.40;94.30
51007;DHT22;37034;47.886;-3.904;2023-05-07T09:45:16;20.30;94.00
51007;DHT22;37034;47.886;-3.904;2023-05-07T09:47:43;20.30;94.60
51007;DHT22;37034;47.886;-3.904;2023-05-07T09:50:12;20.30;94.40
51007;DHT22;37034;47.886;-3.904;2023-05-07T09:52:41;20.20;94.20
51007;DHT22;37034;47.886;-3.904;2023-05-07T09:55:07;20.40;94.70
51007;DHT22;37034;47.886;-3.904;2023-05-07T09:57:34;20.50;94.00
51007;DHT22;37034;47.886;-3.904;2023-05-07T10:00:02;20.60;93.90
51007;DHT22;37034;47.886;-3.904;2023-05-07T10:02:30;20.70;93.20
51007;DHT22;37034;47.886;-3.904;2023-05-07T10:04:57;20.80;94.10
51007;DHT22;37034;47.886;-3.904;2023-05-07T10:07:26;20.80;93.50
51007;DHT22;37034;47.886;-3.904;2023-05-07T10:09:52;20.70;93.20
51007;DHT22;37034;47.886;-3.904;2023-05-07T10:12:19;20.50;93.00
51007;DHT22;37034;47.886;-3.904;2023-05-07T10:14:45;20.40;93.20
51007;DHT22;37034;47.886;-3.904;2023-05-07T10:17:11;20.30;92.80
51007;DHT22;37034;47.886;-3.904;2023-05-07T10:19:37;20.30;93.30
51007;DHT22;37034;47.886;-3.904;2023-05-07T10:22:05;20.30;93.50
51007;DHT22;37034;47.886;-3.904;2023-05-07T10:24:33;20.30;93.10
51007;DHT22;37034;47.886;-3.904;2023-05-07T10:27:06;20.30;93.50
51007;DHT22;37034;47.886;-3.904;2023-05-07T10:34:56;20.70;93.20
51007;DHT22;37034;47.886;-3.904;2023-05-07T10:37:25;20.70;92.80
51007;DHT22;37034;47.886;-3.904;2023-05-07T10:39:51;20.70;93.20
51007;DHT22;37034;47.886;-3.904;2023-05-07T10:42:17;20.70;93.00
51007;DHT22;37034;47.886;-3.904;2023-05-07T10:44:43;20.70;92.60
51007;DHT22;37034;47.886;-3.904;2023-05-07T10:47:14;20.80;93.00
51007;DHT22;37034;47.886;-3.904;2023-05-07T10:52:21;20.80;92.70
51007;DHT22;37034;47.886;-3.904;2023-05-07T10:54:47;20.80;92.70
51007;DHT22;37034;47.886;-3.904;2023-05-07T10:57:36;20.80;92.50
51007;DHT22;37034;47.886;-3.904;2023-05-07T11:07:58;20.70;92.80
51007;DHT22;37034;47.886;-3.904;2023-05-07T11:10:56;20.80;92.30
51007;DHT22;37034;47.886;-3.904;2023-05-07T11:13:46;20.80;92.00
51007;DHT22;37034;47.886;-3.904;2023-05-07T11:16:22;20.80;91.90
51007;DHT22;37034;47.886;-3.904;2023-05-07T11:18:55;20.90;92.60
51007;DHT22;37034;47.886;-3.904;2023-05-07T11:21:38;20.90;92.30
51007;DHT22;37034;47.886;-3.904;2023-05-07T11:24:06;20.80;91.60
51007;DHT22;37034;47.886;-3.904;2023-05-07T11:26:48;20.70;92.20
51007;DHT22;37034;47.886;-3.904;2023-05-07T11:29:19;20.70;91.80
51007;DHT22;37034;47.886;-3.904;2023-05-07T11:31:52;20.80;91.80
51007;DHT22;37034;47.886;-3.904;2023-05-07T11:34:23;20.80;91.80
51007;DHT22;37034;47.886;-3.904;2023-05-07T11:36:49;20.90;92.20
51007;DHT22;37034;47.886;-3.904;2023-05-07T11:39:29;20.90;92.00
51007;DHT22;37034;47.886;-3.904;2023-05-07T11:41:55;20.90;91.90
51007;DHT22;37034;47.886;-3.904;2023-05-07T11:44:21;20.80;91.70
51007;DHT22;37034;47.886;-3.904;2023-05-07T11:46:47;20.80;91.70
51007;DHT22;37034;47.886;-3.904;2023-05-07T11:49:13;20.90;91.70
51007;DHT22;37034;47.886;-3.904;2023-05-07T11:51:39;20.90;91.70
51007;DHT22;37034;47.886;-3.904;2023-05-07T11:54:09;21.00;92.00
51007;DHT22;37034;47.886;-3.904;2023-05-07T11:56:37;21.20;91.90
51007;DHT22;37034;47.886;-3.904;2023-05-07T11:59:02;21.30;91.70
51007;DHT22;37034;47.886;-3.904;2023-05-07T12:01:30;21.40;91.80
51007;DHT22;37034;47.886;-3.904;2023-05-07T12:03:55;21.40;91.30
51007;DHT22;37034;47.886;-3.904;2023-05-07T12:06:21;21.40;91.70
51007;DHT22;37034;47.886;-3.904;2023-05-07T12:08:47;21.50;91.60
51007;DHT22;37034;47.886;-3.904;2023-05-07T12:11:15;21.40;91.10
51007;DHT22;37034;47.886;-3.904;2023-05-07T12:13:43;21.50;90.60
51007;DHT22;37034;47.886;-3.904;2023-05-07T12:16:08;21.30;90.80
51007;DHT22;37034;47.886;-3.904;2023-05-07T12:18:36;21.20;91.00
51007;DHT22;37034;47.886;-3.904;2023-05-07T12:21:02;21.20;91.30
51007;DHT22;37034;47.886;-3.904;2023-05-07T12:23:28;21.20;91.10
51007;DHT22;37034;47.886;-3.904;2023-05-07T12:25:54;21.20;91.10
51007;DHT22;37034;47.886;-3.904;2023-05-07T12:28:20;21.30;90.70
51007;DHT22;37034;47.886;-3.904;2023-05-07T12:30:47;21.30;91.00
51007;DHT22;37034;47.886;-3.904;2023-05-07T12:33:17;21.10;90.60
51007;DHT22;37034;47.886;-3.904;2023-05-07T12:35:44;21.20;91.10
51007;DHT22;37034;47.886;-3.904;2023-05-07T12:38:13;21.20;91.10
51007;DHT22;37034;47.886;-3.904;2023-05-07T12:40:50;21.40;91.40
51007;DHT22;37034;47.886;-3.904;2023-05-07T12:43:25;21.30;91.00
51007;DHT22;37034;47.886;-3.904;2023-05-07T12:45:52;21.40;90.90
51007;DHT22;37034;47.886;-3.904;2023-05-07T12:48:19;21.50;91.20
51007;DHT22;37034;47.886;-3.904;2023-05-07T12:50:45;21.60;91.10
51007;DHT22;37034;47.886;-3.904;2023-05-07T12:53:12;21.70;90.40
51007;DHT22;37034;47.886;-3.904;2023-05-07T12:55:49;21.70;90.40
51007;DHT22;37034;47.886;-3.904;2023-05-07T12:58:18;21.60;90.40
51007;DHT22;37034;47.886;-3.904;2023-05-07T13:00:44;21.50;89.90
51007;DHT22;37034;47.886;-3.904;2023-05-07T13:03:11;21.50;90.50
51007;DHT22;37034;47.886;-3.904;2023-05-07T13:05:37;21.60;90.30
51007;DHT22;37034;47.886;-3.904;2023-05-07T13:08:02;21.60;90.70
51007;DHT22;37034;47.886;-3.904;2023-05-07T13:10:28;21.50;90.30
51007;DHT22;37034;47.886;-3.904;2023-05-07T13:12:54;21.30;90.00
51007;DHT22;37034;47.886;-3.904;2023-05-07T13:15:20;21.30;90.10
51007;DHT22;37034;47.886;-3.904;2023-05-07T13:17:46;21.20;90.20
51007;DHT22;37034;47.886;-3.904;2023-05-07T13:20:12;21.20;90.60
51007;DHT22;37034;47.886;-3.904;2023-05-07T13:22:41;21.30;90.50
51007;DHT22;37034;47.886;-3.904;2023-05-07T13:25:07;21.20;90.30
51007;DHT22;37034;47.886;-3.904;2023-05-07T13:27:33;21.10;90.20
51007;DHT22;37034;47.886;-3.904;2023-05-07T13:30:03;21.20;90.40
51007;DHT22;37034;47.886;-3.904;2023-05-07T13:32:29;21.20;90.40
51007;DHT22;37034;47.886;-3.904;2023-05-07T13:34:55;21.20;90.50
51007;DHT22;37034;47.886;-3.904;2023-05-07T13:37:21;21.30;90.60
51007;DHT22;37034;47.886;-3.904;2023-05-07T13:39:47;21.50;90.60
51007;DHT22;37034;47.886;-3.904;2023-05-07T13:42:12;21.50;90.30
51007;DHT22;37034;47.886;-3.904;2023-05-07T13:44:38;21.50;90.40
51007;DHT22;37034;47.886;-3.904;2023-05-07T13:47:04;21.50;90.30
51007;DHT22;37034;47.886;-3.904;2023-05-07T13:49:29;21.50;90.10
51007;DHT22;37034;47.886;-3.904;2023-05-07T13:51:55;21.40;90.20
51007;DHT22;37034;47.886;-3.904;2023-05-07T13:54:21;21.40;90.30
51007;DHT22;37034;47.886;-3.904;2023-05-07T13:56:46;21.50;90.30
51007;DHT22;37034;47.886;-3.904;2023-05-07T13:59:12;21.50;90.30
51007;DHT22;37034;47.886;-3.904;2023-05-07T14:01:40;21.30;90.10
51007;DHT22;37034;47.886;-3.904;2023-05-07T14:04:06;21.30;90.20
51007;DHT22;37034;47.886;-3.904;2023-05-07T14:06:31;21.20;90.00
51007;DHT22;37034;47.886;-3.904;2023-05-07T14:08:57;21.20;90.40
51007;DHT22;37034;47.886;-3.904;2023-05-07T14:11:23;21.30;90.10
51007;DHT22;37034;47.886;-3.904;2023-05-07T14:13:49;21.30;90.20
51007;DHT22;37034;47.886;-3.904;2023-05-07T14:16:15;21.20;90.10
51007;DHT22;37034;47.886;-3.904;2023-05-07T14:18:40;21.20;90.20
51007;DHT22;37034;47.886;-3.904;2023-05-07T14:21:06;21.20;90.50
51007;DHT22;37034;47.886;-3.904;2023-05-07T14:23:32;21.20;90.30
51007;DHT22;37034;47.886;-3.904;2023-05-07T14:25:58;21.30;90.30
51007;DHT22;37034;47.886;-3.904;2023-05-07T14:28:24;21.30;90.50
51007;DHT22;37034;47.886;-3.904;2023-05-07T14:30:50;21.40;90.60
51007;DHT22;37034;47.886;-3.904;2023-05-07T14:33:15;21.50;90.60
51007;DHT22;37034;47.886;-3.904;2023-05-07T14:35:41;21.50;90.60
51007;DHT22;37034;47.886;-3.904;2023-05-07T14:38:10;21.60;90.50
51007;DHT22;37034;47.886;-3.904;2023-05-07T14:40:36;21.60;90.40
51007;DHT22;37034;47.886;-3.904;2023-05-07T14:43:02;21.50;90.20
51007;DHT22;37034;47.886;-3.904;2023-05-07T14:45:27;21.50;90.20
51007;DHT22;37034;47.886;-3.904;2023-05-07T14:47:53;21.50;90.30
51007;DHT22;37034;47.886;-3.904;2023-05-07T14:50:19;21.60;90.30
51007;DHT22;37034;47.886;-3.904;2023-05-07T14:52:44;21.60;90.30
51007;DHT22;37034;47.886;-3.904;2023-05-07T14:55:10;21.70;90.30
51007;DHT22;37034;47.886;-3.904;2023-05-07T14:57:36;21.80;90.20
51007;DHT22;37034;47.886;-3.904;2023-05-07T15:00:03;21.80;90.40
51007;DHT22;37034;47.886;-3.904;2023-05-07T15:02:30;21.90;90.30
51007;DHT22;37034;47.886;-3.904;2023-05-07T15:04:55;21.90;90.00
51007;DHT22;37034;47.886;-3.904;2023-05-07T15:07:22;21.90;90.20
51007;DHT22;37034;47.886;-3.904;2023-05-07T15:09:47;21.80;90.00
51007;DHT22;37034;47.886;-3.904;2023-05-07T15:12:13;21.80;90.20
51007;DHT22;37034;47.886;-3.904;2023-05-07T15:14:39;21.80;90.10
51007;DHT22;37034;47.886;-3.904;2023-05-07T15:17:05;21.80;88.90
51007;DHT22;37034;47.886;-3.904;2023-05-07T15:19:31;21.80;90.10
51007;DHT22;37034;47.886;-3.904;2023-05-07T15:21:57;21.80;90.20
51007;DHT22;37034;47.886;-3.904;2023-05-07T15:24:24;21.80;90.00
51007;DHT22;37034;47.886;-3.904;2023-05-07T15:26:51;21.70;90.10
51007;DHT22;37034;47.886;-3.904;2023-05-07T15:29:17;21.70;90.10